Time;durP1;ratioP1;P1;durP2;ratioP2;P2;SDS_P1;SDS_P2;PMS_P1;PMS_P2;Temp;Humidity;BMP_temperature;BMP_pressure;BME280_temperature;BME280_humidity;BME280_pressure;Samples;Min_cycle;Max_cycle;Signal;HPM_P1;HPM_P2
2023/09/07 00:04:03;;;;;;;2.38;1.27;;;;;;;9.75;77.87;101967.97;10421291;28;20057;-83
2023/09/07 00:09:06;;;;;;;3.72;1.08;;;;;;;9.97;77.81;101966.22;10462282;28;20068;-83
2023/09/07 00:14:08;;;;;;;1.85;1.00;;;;;;;9.85;77.66;101965.41;10427842;28;20037;-83
2023/09/07 00:19:10;;;;;;;2.88;1.05;;;;;;;9.86;77.73;101972.56;10421419;28;20506;-83
2023/09/07 00:24:16;;;;;;;1.10;0.90;;;;;;;9.82;77.78;101976.88;10428328;28;20041;-83
2023/09/07 00:29:18;;;;;;;1.75;1.00;;;;;;;9.79;78.05;101969.13;10446316;28;20049;-83
2023/09/07 00:34:21;;;;;;;3.17;1.20;;;;;;;9.76;78.17;101975.13;10435822;28;20038;-83
2023/09/07 00:39:25;;;;;;;4.63;1.27;;;;;;;9.76;77.69;101979.75;10445351;28;20041;-84
2023/09/07 00:44:29;;;;;;;2.65;1.10;;;;;;;9.66;78.80;101983.13;10427609;28;20044;-83
2023/09/07 00:49:31;;;;;;;2.50;1.38;;;;;;;9.55;80.22;101989.47;10425531;28;20048;-83
2023/09/07 00:54:35;;;;;;;1.42;1.10;;;;;;;9.54;80.00;101993.25;10404310;28;20046;-83
2023/09/07 00:59:40;;;;;;;2.22;1.48;;;;;;;9.38;80.24;101996.78;10425870;28;20042;-83
2023/09/07 01:04:42;;;;;;;1.35;1.02;;;;;;;9.31;80.88;101997.72;10403259;28;20079;-83
2023/09/07 01:09:49;;;;;;;1.45;1.08;;;;;;;9.39;80.68;101995.69;10424862;28;20038;-83
2023/09/07 01:14:52;;;;;;;2.00;1.30;;;;;;;9.16;81.28;102000.09;10443602;28;20041;-85
2023/09/07 01:19:59;;;;;;;2.40;1.10;;;;;;;9.22;81.12;102001.91;10442768;28;20048;-83
2023/09/07 01:25:02;;;;;;;4.05;1.02;;;;;;;9.23;81.03;102000.81;10445053;28;20037;-82
2023/09/07 01:30:11;;;;;;;1.60;1.00;;;;;;;9.18;81.09;102011.63;10443283;28;20041;-83
2023/09/07 01:35:16;;;;;;;1.60;1.43;;;;;;;9.12;81.57;102014.50;10444146;28;20502;-84
2023/09/07 01:40:19;;;;;;;3.10;1.60;;;;;;;9.05;81.79;102014.63;10443724;28;20047;-84
2023/09/07 01:45:23;;;;;;;4.22;2.13;;;;;;;8.97;81.72;102009.50;10459532;28;20074;-86
2023/09/07 01:50:26;;;;;;;2.85;1.73;;;;;;;8.92;81.88;102017.59;10443432;28;20053;-86
2023/09/07 01:55:29;;;;;;;2.70;1.42;;;;;;;8.91;81.96;102014.03;10427735;28;20438;-82
2023/09/07 02:00:36;;;;;;;1.85;1.40;;;;;;;8.88;81.77;102021.88;10411429;28;20521;-83
2023/09/07 02:05:39;;;;;;;1.48;1.20;;;;;;;8.83;82.57;102019.00;10442189;28;20071;-83
2023/09/07 02:10:41;;;;;;;1.73;1.10;;;;;;;8.76;82.86;102016.38;10428489;28;20043;-86
2023/09/07 02:15:44;;;;;;;1.25;1.02;;;;;;;8.87;82.59;102017.47;10424915;28;20132;-84
2023/09/07 02:20:46;;;;;;;5.20;1.52;;;;;;;8.64;82.73;102032.75;10441868;28;20045;-84
2023/09/07 02:25:49;;;;;;;3.33;1.35;;;;;;;8.62;83.01;102031.34;10443619;28;20084;-84
2023/09/07 02:30:52;;;;;;;2.63;1.23;;;;;;;8.70;82.90;102023.63;10443329;28;20049;-84
2023/09/07 02:35:54;;;;;;;5.25;1.40;;;;;;;8.82;82.57;102020.06;10404426;28;20045;-85
2023/09/07 02:40:57;;;;;;;2.47;1.05;;;;;;;8.80;82.48;102019.47;10423199;28;20044;-84
2023/09/07 02:46:00;;;;;;;1.98;0.90;;;;;;;8.78;82.58;102030.66;10441037;28;20053;-83
2023/09/07 02:51:03;;;;;;;2.35;1.33;;;;;;;8.92;82.75;102037.59;10454680;28;20045;-85
2023/09/07 02:56:07;;;;;;;1.65;1.20;;;;;;;8.87;82.43;102022.94;10459351;28;20517;-85
2023/09/07 03:01:13;;;;;;;3.60;1.38;;;;;;;8.85;82.62;102034.13;10442717;28;20046;-89
2023/09/07 03:06:19;;;;;;;2.30;1.50;;;;;;;8.86;82.29;102037.72;10418801;28;20095;-86
2023/09/07 03:11:25;;;;;;;2.78;1.50;;;;;;;8.93;82.49;102043.91;10417836;28;20055;-84
2023/09/07 03:16:30;;;;;;;2.92;1.20;;;;;;;8.91;82.16;102057.81;10446391;28;20079;-84
2023/09/07 03:21:32;;;;;;;1.92;1.17;;;;;;;8.83;82.97;102065.53;10407476;28;20399;-85
2023/09/07 03:26:35;;;;;;;1.55;1.10;;;;;;;8.89;83.11;102065.44;10425068;28;20045;-84
2023/09/07 03:31:37;;;;;;;2.13;1.50;;;;;;;9.36;81.39;102070.94;10407436;28;20041;-84
2023/09/07 03:36:46;;;;;;;2.17;1.25;;;;;;;9.27;81.28;102075.97;10460497;28;20577;-85
2023/09/07 03:41:49;;;;;;;2.38;1.48;;;;;;;9.24;81.08;102081.09;10450649;28;20077;-84
2023/09/07 03:46:52;;;;;;;4.07;1.27;;;;;;;9.95;78.82;102082.69;10446773;28;20507;-84
2023/09/07 03:51:54;;;;;;;2.25;1.33;;;;;;;10.88;74.76;102087.00;10446495;28;20144;-87
2023/09/07 03:56:57;;;;;;;2.58;1.30;;;;;;;11.41;72.34;102088.44;10409702;28;20043;-86
2023/09/07 04:02:00;;;;;;;6.82;2.20;;;;;;;11.73;71.09;102083.97;10399767;28;20060;-84
2023/09/07 04:07:03;;;;;;;8.15;2.28;;;;;;;12.14;69.00;102090.03;10417454;28;20514;-86
2023/09/07 04:12:06;;;;;;;4.43;1.23;;;;;;;12.48;67.98;102103.63;10441997;28;20391;-85
2023/09/07 04:17:09;;;;;;;2.28;1.27;;;;;;;12.86;66.69;102086.16;10426992;28;20048;-83
2023/09/07 04:22:13;;;;;;;3.63;1.40;;;;;;;13.27;64.98;102090.13;10460500;28;20037;-85
2023/09/07 04:27:20;;;;;;;1.17;1.08;;;;;;;13.18;64.68;102094.44;10432036;28;20045;-85
2023/09/07 04:32:22;;;;;;;4.50;1.35;;;;;;;13.50;64.43;102095.25;10416861;28;20037;-85
2023/09/07 04:37:25;;;;;;;3.85;1.30;;;;;;;13.97;62.23;102097.19;10424172;28;20041;-84
2023/09/07 04:42:27;;;;;;;5.15;1.00;;;;;;;14.43;60.83;102089.09;10413208;28;20446;-83
2023/09/07 04:47:30;;;;;;;6.15;1.48;;;;;;;14.84;59.05;102103.03;10430340;28;20037;-85
2023/09/07 04:52:34;;;;;;;3.65;1.55;;;;;;;15.01;58.92;102107.19;10375659;28;20076;-84
2023/09/07 04:57:38;;;;;;;2.50;0.98;;;;;;;15.48;57.11;102110.78;10419316;28;20049;-85
2023/09/07 05:02:42;;;;;;;1.98;0.98;;;;;;;15.33;57.50;102114.41;10429933;28;20084;-83
2023/09/07 05:07:44;;;;;;;3.00;1.20;;;;;;;16.13;55.67;102118.13;10440904;28;20044;-82
2023/09/07 05:12:47;;;;;;;2.42;1.30;;;;;;;16.63;54.08;102112.63;10461949;28;20048;-82
2023/09/07 05:17:49;;;;;;;2.78;0.95;;;;;;;17.03;53.05;102117.97;10429772;28;20045;-83
2023/09/07 05:22:53;;;;;;;6.35;1.60;;;;;;;17.32;52.61;102106.06;10477857;28;20041;-82
2023/09/07 05:27:55;;;;;;;3.17;1.35;;;;;;;17.01;53.61;102105.47;10458233;28;20056;-83
2023/09/07 05:32:57;;;;;;;2.85;1.60;;;;;;;17.31;53.04;102104.41;10446256;28;20069;-83
2023/09/07 05:38:03;;;;;;;3.50;1.23;;;;;;;17.97;51.51;102106.56;10427964;28;20422;-82
2023/09/07 05:43:06;;;;;;;2.97;1.20;;;;;;;17.90;51.30;102118.03;10438134;28;20037;-82
2023/09/07 05:48:09;;;;;;;4.10;1.05;;;;;;;18.67;49.95;102115.13;10406931;28;20053;-83
2023/09/07 05:53:11;;;;;;;3.28;1.35;;;;;;;18.22;50.30;102122.94;10422027;28;20391;-82
2023/09/07 05:58:14;;;;;;;1.92;1.10;;;;;;;19.13;47.86;102114.44;10410871;28;20045;-83
2023/09/07 06:03:19;;;;;;;1.92;1.05;;;;;;;19.97;45.96;102108.78;10431764;28;20064;-83
2023/09/07 06:08:22;;;;;;;1.48;1.00;;;;;;;17.98;50.48;102117.38;10424206;28;20494;-82
2023/09/07 06:13:24;;;;;;;2.22;0.95;;;;;;;17.02;53.04;102115.50;10475005;28;20514;-82
2023/09/07 06:18:26;;;;;;;2.38;1.08;;;;;;;17.36;52.63;102107.16;10442226;28;20519;-83
2023/09/07 06:23:29;;;;;;;1.88;1.00;;;;;;;17.16;53.74;102099.81;10439614;28;20045;-84
2023/09/07 06:28:32;;;;;;;8.80;2.20;;;;;;;16.75;54.27;102114.00;10441610;28;20048;-86
2023/09/07 06:33:34;;;;;;;6.85;3.53;;;;;;;16.55;55.74;102109.38;10408967;28;20549;-86
2023/09/07 06:38:36;;;;;;;5.57;3.55;;;;;;;16.59;55.74;102126.25;10444560;28;20123;-85
2023/09/07 06:43:40;;;;;;;3.65;2.80;;;;;;;16.76;54.96;102132.28;10474457;28;20045;-86
2023/09/07 06:48:45;;;;;;;7.05;2.60;;;;;;;18.65;50.66;102121.00;10422979;28;20053;-85
2023/09/07 06:53:47;;;;;;;5.40;2.17;;;;;;;20.48;45.96;102136.47;10393401;28;20513;-84
2023/09/07 06:58:49;;;;;;;4.75;2.70;;;;;;;20.96;45.40;102124.78;10444505;28;20053;-84
2023/09/07 07:03:52;;;;;;;2.92;1.70;;;;;;;20.84;45.06;102132.88;10442546;28;20060;-84
2023/09/07 07:08:55;;;;;;;2.03;1.45;;;;;;;21.33;43.35;102137.56;10424816;28;20064;-84
2023/09/07 07:13:58;;;;;;;1.13;1.00;;;;;;;21.02;43.66;102143.06;10442264;28;20064;-84
2023/09/07 07:19:00;;;;;;;1.40;1.10;;;;;;;21.38;42.25;102142.22;10413770;28;20029;-84
2023/09/07 07:24:06;;;;;;;1.20;0.80;;;;;;;20.80;42.93;102148.59;10447251;28;20037;-83
2023/09/07 07:29:09;;;;;;;2.58;0.60;;;;;;;21.78;41.37;102137.53;10445949;28;20655;-83
2023/09/07 07:34:12;;;;;;;2.15;0.73;;;;;;;21.66;41.23;102136.13;10416048;28;20426;-83
2023/09/07 07:39:15;;;;;;;0.75;0.75;;;;;;;21.56;41.18;102132.81;10429755;28;20406;-84
2023/09/07 07:44:18;;;;;;;1.23;0.80;;;;;;;22.92;38.28;102118.00;10465990;28;20048;-86
2023/09/07 07:49:21;;;;;;;2.05;1.13;;;;;;;22.02;39.15;102109.19;10433519;28;20053;-83
2023/09/07 07:54:24;;;;;;;1.52;0.93;;;;;;;19.72;43.79;102122.06;10466834;28;20056;-83
2023/09/07 07:59:28;;;;;;;2.28;1.02;;;;;;;21.58;41.41;102136.94;10449312;28;20036;-83
2023/09/07 08:04:32;;;;;;;2.20;1.20;;;;;;;23.03;38.12;102139.72;10444252;28;20421;-83
2023/09/07 08:09:35;;;;;;;1.95;0.50;;;;;;;22.16;38.69;102129.50;10443626;28;20044;-82
2023/09/07 08:14:37;;;;;;;1.60;0.90;;;;;;;22.89;38.29;102129.84;10442518;28;20521;-86
2023/09/07 08:19:40;;;;;;;2.78;0.77;;;;;;;23.00;37.75;102122.78;10431234;28;20063;-86
2023/09/07 08:24:44;;;;;;;0.77;0.68;;;;;;;22.40;38.32;102129.09;10413502;28;20049;-87
2023/09/07 08:29:51;;;;;;;1.10;0.55;;;;;;;20.66;41.90;102121.56;10429731;28;20049;-83
2023/09/07 08:34:59;;;;;;;;;;;;;;;18.57;46.16;102115.22;10448167;28;20534;-86
2023/09/07 08:40:03;;;;;;;2.50;0.90;;;;;;;19.54;43.93;102117.38;10446587;28;19928;-86
2023/09/07 08:45:08;;;;;;;2.65;0.50;;;;;;;19.80;44.17;102115.78;10410667;28;20053;-85
2023/09/07 08:50:12;;;;;;;4.03;0.73;;;;;;;18.03;45.85;102122.84;10405391;28;20510;-86
2023/09/07 08:55:14;;;;;;;1.10;0.68;;;;;;;17.96;46.33;102111.28;10444450;28;20045;-86
2023/09/07 09:00:18;;;;;;;2.10;0.70;;;;;;;19.88;42.36;102114.25;10478996;28;20050;-88
2023/09/07 09:05:21;;;;;;;1.85;0.52;;;;;;;20.43;40.91;102103.09;10446273;28;20052;-84
2023/09/07 09:10:23;;;;;;;0.93;0.45;;;;;;;18.55;44.05;102109.97;10440732;28;20045;-83
2023/09/07 09:15:27;;;;;;;0.50;0.40;;;;;;;17.43;46.21;102108.47;10444124;28;21197;-84
2023/09/07 09:20:29;;;;;;;1.42;0.60;;;;;;;17.51;46.55;102112.53;10395749;28;20526;-84
2023/09/07 09:25:31;;;;;;;0.85;0.60;;;;;;;17.63;47.40;102107.44;10434661;28;20044;-84
2023/09/07 09:30:33;;;;;;;1.08;0.40;;;;;;;17.66;47.53;102100.47;10433067;28;20041;-87
2023/09/07 09:35:38;;;;;;;2.30;0.55;;;;;;;17.62;46.73;102103.00;10441777;28;20052;-85
2023/09/07 09:40:40;;;;;;;1.05;0.52;;;;;;;17.31;46.98;102105.25;10410191;28;20044;-86
2023/09/07 09:45:42;;;;;;;0.93;0.70;;;;;;;16.96;48.79;102109.13;10427540;28;20036;-87
2023/09/07 09:50:48;;;;;;;2.20;0.65;;;;;;;17.03;49.06;102098.56;10425409;28;20050;-86
2023/09/07 09:55:53;;;;;;;2.20;0.50;;;;;;;17.09;49.76;102096.56;10395661;28;20049;-87
2023/09/07 10:00:58;;;;;;;0.80;0.50;;;;;;;17.15;49.01;102101.75;10412494;28;20133;-85
2023/09/07 10:06:18;;;;;;;1.85;0.73;;;;;;;17.49;48.54;102100.91;10407697;28;20076;-86
2023/09/07 10:11:35;;;;;;;5.65;0.70;;;;;;;17.35;49.09;102105.47;10405627;28;20041;-87
2023/09/07 10:16:48;;;;;;;1.20;0.60;;;;;;;17.63;48.37;102098.28;10406685;28;20048;-86
2023/09/07 10:21:53;;;;;;;1.60;0.70;;;;;;;17.92;46.42;102079.69;10425996;28;21051;-84
2023/09/07 10:27:00;;;;;;;3.60;0.60;;;;;;;17.74;47.31;102080.44;10427794;28;20037;-85
2023/09/07 10:32:06;;;;;;;0.50;0.50;;;;;;;17.62;47.64;102078.03;10422884;28;20037;-85
2023/09/07 10:37:13;;;;;;;3.00;0.60;;;;;;;17.39;47.65;102085.22;10389839;28;20045;-85
2023/09/07 10:42:22;;;;;;;1.00;0.57;;;;;;;17.45;46.67;102085.97;10386549;28;20450;-85
2023/09/07 10:47:24;;;;;;;1.17;0.55;;;;;;;17.57;46.92;102080.88;10391338;28;20033;-86
2023/09/07 10:52:28;;;;;;;2.38;0.80;;;;;;;17.81;46.31;102080.09;10402601;28;20037;-86
2023/09/07 10:57:30;;;;;;;1.55;0.60;;;;;;;17.66;46.73;102084.63;10402626;28;20042;-84
2023/09/07 11:02:33;;;;;;;1.77;0.70;;;;;;;17.54;47.09;102080.63;10385884;28;20054;-87
2023/09/07 11:07:36;;;;;;;6.80;0.45;;;;;;;17.55;46.88;102080.34;10403666;28;20046;-85
2023/09/07 11:12:40;;;;;;;0.75;0.35;;;;;;;17.62;46.97;102078.03;10418709;28;20042;-85
2023/09/07 11:17:42;;;;;;;0.90;0.30;;;;;;;17.52;47.25;102083.66;10396572;28;20046;-86
2023/09/07 11:22:45;;;;;;;0.77;0.50;;;;;;;17.64;47.23;102080.50;10459530;28;20533;-86
2023/09/07 11:27:47;;;;;;;0.95;0.43;;;;;;;17.75;47.19;102080.16;10426541;28;20049;-85
2023/09/07 11:32:49;;;;;;;1.00;0.50;;;;;;;17.55;47.82;102074.78;10442882;28;20037;-87
2023/09/07 11:37:53;;;;;;;2.28;0.80;;;;;;;17.63;48.30;102063.03;10442405;28;20415;-86
2023/09/07 11:42:57;;;;;;;3.17;1.00;;;;;;;17.62;48.44;102061.38;10442901;28;20503;-86
2023/09/07 11:47:59;;;;;;;0.75;0.60;;;;;;;17.65;47.58;102059.94;10426163;28;20041;-84
2023/09/07 11:53:07;;;;;;;3.33;1.00;;;;;;;17.54;48.07;102056.47;10443039;28;20037;-87
2023/09/07 11:58:09;;;;;;;1.27;0.88;;;;;;;17.27;49.68;102050.63;10433825;28;20629;-85
2023/09/07 12:03:13;;;;;;;1.90;0.77;;;;;;;17.51;50.56;102048.72;10447297;28;20399;-85
2023/09/07 12:08:15;;;;;;;1.58;0.60;;;;;;;17.48;50.30;102039.03;10458316;28;20536;-85
2023/09/07 12:13:18;;;;;;;0.75;0.60;;;;;;;17.61;50.87;102043.06;10449186;28;20502;-86
2023/09/07 12:18:21;;;;;;;1.48;0.43;;;;;;;17.49;51.75;102031.53;10448767;28;20494;-86
2023/09/07 12:23:25;;;;;;;2.63;0.50;;;;;;;17.39;52.69;102032.47;10436261;28;20546;-87
2023/09/07 12:28:28;;;;;;;4.40;0.52;;;;;;;17.27;53.16;102028.44;10448241;28;20037;-86
2023/09/07 12:33:32;;;;;;;1.65;0.60;;;;;;;16.92;53.61;102024.88;10448565;28;20398;-84
2023/09/07 12:38:34;;;;;;;2.47;0.32;;;;;;;16.77;53.73;102013.91;10449465;28;20045;-86
2023/09/07 12:43:37;;;;;;;0.70;0.70;;;;;;;16.77;53.66;102008.34;10447890;28;20041;-86
2023/09/07 12:48:39;;;;;;;3.83;0.50;;;;;;;16.88;53.97;102008.00;10431937;28;20041;-87
2023/09/07 12:53:41;;;;;;;1.75;0.50;;;;;;;16.97;52.99;102022.03;10447421;28;20041;-84
2023/09/07 12:58:45;;;;;;;0.95;0.70;;;;;;;16.99;53.77;102014.25;10444519;28;20055;-87
2023/09/07 13:03:47;;;;;;;0.95;0.40;;;;;;;17.21;53.58;102005.47;10457597;28;20053;-86
2023/09/07 13:09:41;;;;;;;1.75;0.38;;;;;;;17.07;53.21;102005.31;10430927;28;20521;-88
2023/09/07 13:14:43;;;;;;;1.42;0.52;;;;;;;17.09;52.94;101996.72;10442642;28;20037;-84
2023/09/07 13:19:48;;;;;;;2.63;0.30;;;;;;;17.31;52.11;102004.53;10448523;28;20044;-91
2023/09/07 13:24:50;;;;;;;1.90;0.50;;;;;;;17.21;52.52;102004.66;10444098;28;20055;-91
2023/09/07 13:29:54;;;;;;;2.47;0.75;;;;;;;17.23;53.21;101985.75;10449061;28;20044;-87
2023/09/07 13:34:56;;;;;;;1.23;0.57;;;;;;;17.17;53.63;101976.66;10453098;28;20037;-87
2023/09/07 13:39:58;;;;;;;1.42;0.73;;;;;;;16.88;54.08;101968.34;10451714;28;20056;-87
2023/09/07 13:45:02;;;;;;;0.80;0.80;;;;;;;16.70;53.97;101966.28;10450370;28;20510;-85
2023/09/07 13:50:10;;;;;;;2.90;0.68;;;;;;;16.48;54.59;101964.75;10439571;28;20044;-83
2023/09/07 13:55:39;;;;;;;2.72;0.85;;;;;;;16.41;55.95;101955.13;10434314;28;20045;-85
2023/09/07 14:00:42;;;;;;;2.80;0.98;;;;;;;16.52;56.44;101953.94;10446620;28;20054;-83
2023/09/07 14:05:45;;;;;;;1.75;0.60;;;;;;;16.39;55.48;101949.88;10429922;28;20053;-86
2023/09/07 14:10:47;;;;;;;1.73;0.88;;;;;;;16.48;55.39;101945.34;10418305;28;20076;-83
2023/09/07 14:15:49;;;;;;;0.65;0.43;;;;;;;16.23;56.23;101945.56;10444479;28;20045;-84
2023/09/07 14:20:52;;;;;;;0.65;0.50;;;;;;;16.15;56.13;101938.69;10427229;28;20041;-85
2023/09/07 14:25:54;;;;;;;3.33;0.77;;;;;;;16.01;57.48;101945.16;10448571;28;20112;-85
2023/09/07 14:30:58;;;;;;;0.90;0.60;;;;;;;16.10;57.56;101933.16;10448011;28;20140;-83
2023/09/07 14:36:01;;;;;;;0.90;0.52;;;;;;;16.07;58.13;101932.91;10393781;28;20131;-85
2023/09/07 14:41:04;;;;;;;1.00;0.60;;;;;;;16.04;59.32;101922.41;10449194;28;20046;-87
2023/09/07 14:46:09;;;;;;;1.45;0.50;;;;;;;16.05;60.47;101926.84;10429532;28;20429;-86
2023/09/07 14:51:17;;;;;;;0.57;0.50;;;;;;;16.06;58.86;101918.25;10419931;23;20050;-74
2023/09/07 14:56:20;;;;;;;1.02;0.57;;;;;;;16.01;58.99;101931.31;10417903;28;20038;-76
2023/09/07 15:01:23;;;;;;;0.70;0.50;;;;;;;16.04;59.26;101930.72;10379972;28;20041;-75
2023/09/07 15:06:25;;;;;;;0.60;0.40;;;;;;;15.97;60.52;101925.53;10390049;28;20053;-74
2023/09/07 15:11:28;;;;;;;0.50;0.43;;;;;;;15.96;60.83;101923.84;10398868;28;20057;-73
2023/09/07 15:16:31;;;;;;;0.75;0.30;;;;;;;15.85;60.99;101916.72;10399993;28;20520;-74
2023/09/07 15:21:34;;;;;;;1.15;0.63;;;;;;;15.81;61.93;101923.94;10394241;28;20054;-74
2023/09/07 15:26:44;;;;;;;0.28;0.20;;;;;;;15.76;62.45;101913.72;10400395;28;20507;-73
2023/09/07 15:31:46;;;;;;;1.60;0.63;;;;;;;15.63;63.06;101909.66;10403295;28;20404;-73
2023/09/07 15:36:48;;;;;;;0.63;0.50;;;;;;;15.55;63.33;101906.59;10402048;28;20046;-74
2023/09/07 15:41:52;;;;;;;2.28;0.60;;;;;;;15.39;64.15;101903.06;10396751;28;20221;-73
2023/09/07 15:46:58;;;;;;;1.08;0.77;;;;;;;15.56;63.93;101894.41;10400081;28;20037;-73
2023/09/07 15:52:00;;;;;;;2.05;0.77;;;;;;;15.33;64.92;101898.66;10403229;28;20061;-72
2023/09/07 15:57:03;;;;;;;2.38;0.75;;;;;;;15.17;64.93;101894.31;10394893;28;20042;-72
2023/09/07 16:02:06;;;;;;;2.10;0.65;;;;;;;15.23;64.74;101887.63;10401052;28;20049;-73
2023/09/07 16:07:09;;;;;;;1.50;0.52;;;;;;;15.13;65.19;101885.75;10406881;28;20034;-72
2023/09/07 16:12:12;;;;;;;1.27;0.68;;;;;;;15.10;65.43;101886.31;10398664;28;20050;-74
2023/09/07 16:17:14;;;;;;;1.02;0.65;;;;;;;15.11;64.88;101879.69;10393633;28;20054;-75
2023/09/07 16:22:17;;;;;;;2.38;0.68;;;;;;;15.03;65.00;101864.47;10403948;28;20037;-77
2023/09/07 16:27:19;;;;;;;1.80;0.45;;;;;;;14.99;64.92;101863.38;10399733;28;20073;-75
2023/09/07 16:32:22;;;;;;;1.50;0.57;;;;;;;15.04;64.61;101881.88;10398865;28;20038;-75
2023/09/07 16:37:27;;;;;;;2.28;0.63;;;;;;;14.98;64.85;101864.50;10394136;28;20416;-76
2023/09/07 16:42:29;;;;;;;1.05;0.65;;;;;;;14.82;64.96;101867.59;10401182;28;20053;-77
2023/09/07 16:47:32;;;;;;;1.80;1.13;;;;;;;14.71;65.53;101862.06;10404980;28;20053;-76
2023/09/07 16:52:34;;;;;;;1.92;0.82;;;;;;;14.65;66.11;101868.72;10402856;28;20054;-74
2023/09/07 16:57:37;;;;;;;2.60;0.90;;;;;;;14.53;66.72;101865.41;10399526;28;20508;-75
2023/09/07 17:02:39;;;;;;;3.25;1.33;;;;;;;14.42;67.50;101877.56;10399989;28;20046;-75
2023/09/07 17:07:42;;;;;;;1.17;0.90;;;;;;;14.51;67.15;101870.38;10406679;28;20053;-75
2023/09/07 17:12:44;;;;;;;1.25;0.75;;;;;;;14.44;68.09;101875.38;10402129;28;20046;-74
2023/09/07 17:17:49;;;;;;;1.52;0.90;;;;;;;14.38;68.64;101873.66;10401992;28;20057;-76
2023/09/07 17:22:51;;;;;;;3.00;1.00;;;;;;;14.42;68.56;101872.03;10404069;28;20050;-75
2023/09/07 17:27:54;;;;;;;1.17;0.68;;;;;;;14.45;68.43;101863.22;10407421;28;20054;-75
2023/09/07 17:32:56;;;;;;;2.40;0.80;;;;;;;14.56;68.58;101873.13;10400126;28;20050;-75
2023/09/07 17:37:58;;;;;;;1.67;1.02;;;;;;;14.40;69.52;101852.13;10411080;28;20042;-73
2023/09/07 17:43:01;;;;;;;1.10;0.90;;;;;;;14.42;69.31;101852.69;10403892;28;20451;-73
2023/09/07 17:48:03;;;;;;;1.00;0.90;;;;;;;14.40;69.71;101857.63;10405041;28;20053;-73
2023/09/07 17:53:05;;;;;;;1.02;0.80;;;;;;;14.36;69.68;101865.66;10400466;28;20496;-76
2023/09/07 17:58:08;;;;;;;3.33;0.90;;;;;;;14.28;69.80;101859.88;10401099;28;20041;-75
2023/09/07 18:03:10;;;;;;;1.02;0.80;;;;;;;14.29;69.52;101861.53;10426489;28;20064;-76
2023/09/07 18:08:12;;;;;;;2.65;1.10;;;;;;;14.21;69.73;101842.75;10400519;28;20045;-76
2023/09/07 18:13:14;;;;;;;2.22;1.10;;;;;;;14.20;70.14;101852.97;10403751;28;20423;-75
2023/09/07 18:18:17;;;;;;;1.65;1.00;;;;;;;14.07;69.79;101837.78;10382460;28;20037;-75
2023/09/07 18:23:20;;;;;;;2.15;0.80;;;;;;;13.95;70.88;101828.94;10393222;28;20072;-71
2023/09/07 18:28:22;;;;;;;2.35;0.95;;;;;;;13.91;71.55;101827.00;10397790;28;20050;-71
2023/09/07 18:33:24;;;;;;;2.65;1.00;;;;;;;13.98;71.55;101822.03;10402161;28;20038;-74
2023/09/07 18:38:26;;;;;;;2.25;1.00;;;;;;;13.95;71.98;101833.63;10400862;28;20057;-73
2023/09/07 18:43:29;;;;;;;2.17;1.00;;;;;;;13.90;72.75;101834.47;10395405;28;20057;-72
2023/09/07 18:48:32;;;;;;;2.92;1.00;;;;;;;14.00;72.69;101839.16;10401759;28;20057;-74
2023/09/07 18:53:35;;;;;;;3.17;1.05;;;;;;;14.06;72.70;101827.84;10400937;28;20045;-73
2023/09/07 18:58:38;;;;;;;1.65;0.88;;;;;;;14.07;73.03;101814.88;10400877;28;20049;-74
2023/09/07 19:03:49;;;;;;;1.23;0.75;;;;;;;14.15;73.45;101814.31;10400506;28;20690;-73
2023/09/07 19:08:51;;;;;;;2.30;1.00;;;;;;;14.18;73.54;101816.53;10396052;28;20046;-73
2023/09/07 19:13:54;;;;;;;0.90;0.70;;;;;;;14.14;73.53;101801.63;10402469;28;20418;-73
2023/09/07 19:18:56;;;;;;;2.22;0.90;;;;;;;14.05;74.30;101790.28;10403729;28;20053;-73
2023/09/07 19:23:58;;;;;;;5.22;1.00;;;;;;;14.15;73.92;101801.34;10402816;28;20071;-72
2023/09/07 19:29:08;;;;;;;2.38;1.00;;;;;;;14.10;74.76;101808.81;10401540;28;20049;-73
2023/09/07 19:34:10;;;;;;;3.03;1.08;;;;;;;13.96;74.82;101797.47;10409222;28;20076;-73
2023/09/07 19:39:13;;;;;;;4.28;1.40;;;;;;;14.07;74.45;101784.53;10392651;28;20038;-75
2023/09/07 19:44:16;;;;;;;2.75;1.17;;;;;;;13.98;75.15;101781.47;10398952;28;20052;-74
2023/09/07 19:49:19;;;;;;;3.67;1.40;;;;;;;13.92;75.66;101768.78;10397482;28;20058;-74
2023/09/07 19:54:21;;;;;;;2.53;1.20;;;;;;;13.85;76.55;101780.09;10381188;28;20587;-74
2023/09/07 19:59:24;;;;;;;1.77;1.35;;;;;;;13.83;77.17;101764.91;10395086;28;20504;-73
2023/09/07 20:04:28;;;;;;;5.90;1.30;;;;;;;13.82;77.43;101761.31;10404082;28;20052;-73
2023/09/07 20:09:30;;;;;;;3.42;1.33;;;;;;;13.79;78.04;101777.59;10403866;28;20046;-74
2023/09/07 20:14:33;;;;;;;3.67;1.50;;;;;;;13.86;77.56;101773.47;10402785;28;20573;-74
2023/09/07 20:19:43;;;;;;;2.13;1.38;;;;;;;13.92;77.48;101762.44;10390439;28;20058;-73
2023/09/07 20:24:45;;;;;;;2.83;1.10;;;;;;;13.89;77.91;101750.03;10405872;28;20044;-74
2023/09/07 20:29:48;;;;;;;2.63;1.48;;;;;;;13.78;78.41;101745.59;10406846;28;20053;-72
2023/09/07 20:34:50;;;;;;;4.47;1.48;;;;;;;13.80;79.37;101746.16;10405975;28;20057;-73
2023/09/07 20:39:54;;;;;;;3.08;1.30;;;;;;;13.84;79.96;101744.50;10406708;28;20062;-72
2023/09/07 20:44:56;;;;;;;3.65;1.27;;;;;;;13.94;79.67;101743.69;10405116;28;20041;-72
2023/09/07 20:49:59;;;;;;;2.83;1.13;;;;;;;13.98;79.62;101720.75;10406154;28;20053;-73
2023/09/07 20:55:03;;;;;;;3.65;1.13;;;;;;;14.07;79.99;101707.25;10406034;28;20416;-75
2023/09/07 21:00:10;;;;;;;5.55;1.58;;;;;;;14.11;79.80;101700.88;10421802;28;20489;-73
2023/09/07 21:05:12;;;;;;;2.55;1.30;;;;;;;14.05;80.28;101701.97;10393846;28;20042;-72
2023/09/07 21:10:14;;;;;;;2.25;1.08;;;;;;;14.08;80.91;101706.97;10404762;28;20408;-73
2023/09/07 21:15:17;;;;;;;5.05;1.30;;;;;;;14.09;81.20;101716.06;10421842;28;20567;-73
2023/09/07 21:20:19;;;;;;;3.95;1.42;;;;;;;14.18;80.96;101712.44;10403806;28;20058;-73
2023/09/07 21:25:22;;;;;;;3.17;1.27;;;;;;;14.11;81.90;101719.38;10405697;28;20038;-74
2023/09/07 21:30:24;;;;;;;2.83;1.02;;;;;;;14.11;82.03;101716.63;10400280;28;20042;-74
2023/09/07 21:35:26;;;;;;;4.65;1.35;;;;;;;14.09;82.29;101718.81;10398923;28;20543;-73
2023/09/07 21:40:28;;;;;;;1.30;0.80;;;;;;;14.06;83.02;101708.34;10419597;28;20408;-74
2023/09/07 21:45:31;;;;;;;2.55;1.20;;;;;;;13.99;84.40;101705.03;10406253;28;20058;-74
2023/09/07 21:50:34;;;;;;;2.03;1.30;;;;;;;13.99;84.65;101703.09;10406236;28;20050;-74
2023/09/07 21:55:36;;;;;;;4.00;1.20;;;;;;;13.95;84.69;101706.69;10393866;28;20046;-74
2023/09/07 22:00:39;;;;;;;3.22;1.23;;;;;;;13.94;85.27;101710.56;10403998;28;20052;-76
2023/09/07 22:05:43;;;;;;;4.47;1.58;;;;;;;13.90;85.66;101702.03;10386828;28;20521;-73
2023/09/07 22:10:45;;;;;;;3.35;1.20;;;;;;;13.87;86.12;101706.13;10398106;28;20038;-73
2023/09/07 22:15:48;;;;;;;3.38;1.20;;;;;;;13.81;86.44;101701.75;10389778;28;20060;-73
2023/09/07 22:20:50;;;;;;;1.48;0.95;;;;;;;13.73;86.50;101702.31;10386710;28;20057;-73
2023/09/07 22:25:52;;;;;;;2.38;1.20;;;;;;;13.73;86.88;101704.25;10398728;28;20060;-73
2023/09/07 22:30:58;;;;;;;4.05;1.40;;;;;;;13.72;87.22;101697.06;10403160;28;20044;-73
2023/09/07 22:36:00;;;;;;;3.30;1.13;;;;;;;13.65;87.11;101691.81;10403594;28;20048;-72
2023/09/07 22:41:02;;;;;;;2.72;1.33;;;;;;;13.63;87.30;101683.00;10381356;28;20551;-73
2023/09/07 22:46:04;;;;;;;4.25;1.67;;;;;;;13.64;87.57;101675.53;10390162;28;20034;-73
2023/09/07 22:51:07;;;;;;;3.00;1.27;;;;;;;13.63;87.41;101677.47;10399831;28;20065;-73
2023/09/07 22:56:09;;;;;;;2.22;1.10;;;;;;;13.68;87.82;101663.66;10409389;28;20042;-72
2023/09/07 23:01:11;;;;;;;4.03;1.23;;;;;;;13.77;87.59;101652.91;10421326;28;20056;-73
2023/09/07 23:06:13;;;;;;;3.63;1.27;;;;;;;13.81;87.48;101659.53;10417258;28;20038;-73
2023/09/07 23:11:17;;;;;;;4.38;1.30;;;;;;;13.67;87.49;101645.47;10403782;28;20050;-74
2023/09/07 23:16:19;;;;;;;3.40;1.10;;;;;;;13.58;88.36;101625.09;10418167;28;20125;-73
2023/09/07 23:21:22;;;;;;;3.35;1.35;;;;;;;13.53;88.32;101612.09;10400740;28;20045;-74